sensor_id;sensor_type;location;lat;lon;timestamp;P1;durP1;ratioP1;P2;durP2;ratioP2
12832;SDS011;6483;51.310;4.462;2023-01-29T00:02:21;78.87;;;37.67;;
12832;SDS011;6483;51.310;4.462;2023-01-29T00:04:47;88.87;;;39.93;;
12832;SDS011;6483;51.310;4.462;2023-01-29T00:07:13;76.07;;;36.50;;
12832;SDS011;6483;51.310;4.462;2023-01-29T00:09:39;65.43;;;34.30;;
12832;SDS011;6483;51.310;4.462;2023-01-29T00:12:05;69.37;;;34.77;;
12832;SDS011;6483;51.310;4.462;2023-01-29T00:14:33;67.60;;;33.70;;
12832;SDS011;6483;51.310;4.462;2023-01-29T00:16:59;75.70;;;37.30;;
12832;SDS011;6483;51.310;4.462;2023-01-29T00:19:27;79.93;;;37.53;;
12832;SDS011;6483;51.310;4.462;2023-01-29T00:21:53;65.30;;;32.97;;
12832;SDS011;6483;51.310;4.462;2023-01-29T00:24:21;72.07;;;34.80;;
12832;SDS011;6483;51.310;4.462;2023-01-29T00:26:47;60.77;;;32.10;;
12832;SDS011;6483;51.310;4.462;2023-01-29T00:29:16;58.67;;;31.63;;
12832;SDS011;6483;51.310;4.462;2023-01-29T00:31:43;55.03;;;29.27;;
12832;SDS011;6483;51.310;4.462;2023-01-29T00:34:14;59.57;;;29.30;;
12832;SDS011;6483;51.310;4.462;2023-01-29T00:36:42;53.97;;;30.10;;
12832;SDS011;6483;51.310;4.462;2023-01-29T00:39:11;55.03;;;29.87;;
12832;SDS011;6483;51.310;4.462;2023-01-29T00:41:37;58.37;;;30.93;;
12832;SDS011;6483;51.310;4.462;2023-01-29T00:44:22;57.77;;;31.40;;
12832;SDS011;6483;51.310;4.462;2023-01-29T00:47:10;51.90;;;28.73;;
12832;SDS011;6483;51.310;4.462;2023-01-29T00:49:54;53.63;;;29.03;;
12832;SDS011;6483;51.310;4.462;2023-01-29T00:52:20;55.97;;;29.30;;
12832;SDS011;6483;51.310;4.462;2023-01-29T00:54:51;53.43;;;29.30;;
12832;SDS011;6483;51.310;4.462;2023-01-29T00:57:17;55.50;;;30.53;;
12832;SDS011;6483;51.310;4.462;2023-01-29T00:59:43;59.60;;;30.90;;
12832;SDS011;6483;51.310;4.462;2023-01-29T01:02:12;54.27;;;29.37;;
12832;SDS011;6483;51.310;4.462;2023-01-29T01:04:57;53.17;;;29.60;;
12832;SDS011;6483;51.310;4.462;2023-01-29T01:07:23;56.07;;;31.53;;
12832;SDS011;6483;51.310;4.462;2023-01-29T01:09:50;62.13;;;31.30;;
12832;SDS011;6483;51.310;4.462;2023-01-29T01:12:36;57.53;;;31.13;;
12832;SDS011;6483;51.310;4.462;2023-01-29T01:15:01;50.50;;;29.13;;
12832;SDS011;6483;51.310;4.462;2023-01-29T01:17:30;53.47;;;29.77;;
12832;SDS011;6483;51.310;4.462;2023-01-29T01:19:55;53.23;;;30.47;;
12832;SDS011;6483;51.310;4.462;2023-01-29T01:22:21;56.17;;;31.83;;
12832;SDS011;6483;51.310;4.462;2023-01-29T01:24:53;57.87;;;32.47;;
12832;SDS011;6483;51.310;4.462;2023-01-29T01:27:19;60.67;;;32.77;;
12832;SDS011;6483;51.310;4.462;2023-01-29T01:29:49;54.23;;;30.80;;
12832;SDS011;6483;51.310;4.462;2023-01-29T01:32:20;57.97;;;30.00;;
12832;SDS011;6483;51.310;4.462;2023-01-29T01:34:46;56.07;;;31.87;;
12832;SDS011;6483;51.310;4.462;2023-01-29T01:37:15;58.90;;;32.57;;
12832;SDS011;6483;51.310;4.462;2023-01-29T01:39:41;53.03;;;29.33;;
12832;SDS011;6483;51.310;4.462;2023-01-29T01:42:12;58.67;;;31.20;;
12832;SDS011;6483;51.310;4.462;2023-01-29T01:47:36;54.23;;;31.63;;
12832;SDS011;6483;51.310;4.462;2023-01-29T01:50:10;58.87;;;33.10;;
12832;SDS011;6483;51.310;4.462;2023-01-29T01:52:52;54.17;;;30.63;;
12832;SDS011;6483;51.310;4.462;2023-01-29T01:56:13;55.40;;;29.50;;
12832;SDS011;6483;51.310;4.462;2023-01-29T01:58:38;56.43;;;29.13;;
12832;SDS011;6483;51.310;4.462;2023-01-29T02:01:07;53.97;;;31.33;;
12832;SDS011;6483;51.310;4.462;2023-01-29T02:03:51;53.60;;;31.47;;
12832;SDS011;6483;51.310;4.462;2023-01-29T02:06:41;55.90;;;31.40;;
12832;SDS011;6483;51.310;4.462;2023-01-29T02:09:31;53.53;;;30.60;;
12832;SDS011;6483;51.310;4.462;2023-01-29T02:12:08;54.00;;;30.57;;
12832;SDS011;6483;51.310;4.462;2023-01-29T02:14:38;48.70;;;28.87;;
12832;SDS011;6483;51.310;4.462;2023-01-29T02:17:10;51.77;;;30.00;;
12832;SDS011;6483;51.310;4.462;2023-01-29T02:25:22;49.47;;;28.87;;
12832;SDS011;6483;51.310;4.462;2023-01-29T02:33:41;50.80;;;29.10;;
12832;SDS011;6483;51.310;4.462;2023-01-29T02:36:44;51.70;;;28.97;;
12832;SDS011;6483;51.310;4.462;2023-01-29T02:45:03;49.13;;;28.30;;
12832;SDS011;6483;51.310;4.462;2023-01-29T02:50:11;51.00;;;29.13;;
12832;SDS011;6483;51.310;4.462;2023-01-29T02:58:07;47.53;;;27.70;;
12832;SDS011;6483;51.310;4.462;2023-01-29T03:00:47;50.27;;;29.03;;
12832;SDS011;6483;51.310;4.462;2023-01-29T03:03:16;53.30;;;29.80;;
12832;SDS011;6483;51.310;4.462;2023-01-29T03:08:44;52.17;;;29.93;;
12832;SDS011;6483;51.310;4.462;2023-01-29T03:11:22;53.73;;;30.07;;
12832;SDS011;6483;51.310;4.462;2023-01-29T03:16:50;50.77;;;28.50;;
12832;SDS011;6483;51.310;4.462;2023-01-29T03:22:11;47.60;;;28.63;;
12832;SDS011;6483;51.310;4.462;2023-01-29T03:25:03;49.13;;;29.07;;
12832;SDS011;6483;51.310;4.462;2023-01-29T03:27:50;51.77;;;26.93;;
12832;SDS011;6483;51.310;4.462;2023-01-29T03:30:37;45.13;;;27.23;;
12832;SDS011;6483;51.310;4.462;2023-01-29T03:33:47;47.90;;;28.33;;
12832;SDS011;6483;51.310;4.462;2023-01-29T03:36:29;52.27;;;27.47;;
12832;SDS011;6483;51.310;4.462;2023-01-29T03:39:07;47.13;;;27.63;;
12832;SDS011;6483;51.310;4.462;2023-01-29T03:41:34;48.10;;;26.90;;
12832;SDS011;6483;51.310;4.462;2023-01-29T03:44:14;49.93;;;28.10;;
12832;SDS011;6483;51.310;4.462;2023-01-29T03:50:18;51.10;;;29.67;;
12832;SDS011;6483;51.310;4.462;2023-01-29T03:52:42;50.43;;;27.47;;
12832;SDS011;6483;51.310;4.462;2023-01-29T03:55:29;46.87;;;27.07;;
12832;SDS011;6483;51.310;4.462;2023-01-29T04:00:44;48.10;;;27.20;;
12832;SDS011;6483;51.310;4.462;2023-01-29T04:03:19;48.40;;;27.30;;
12832;SDS011;6483;51.310;4.462;2023-01-29T04:06:10;39.67;;;24.23;;
12832;SDS011;6483;51.310;4.462;2023-01-29T04:08:55;44.80;;;25.47;;
12832;SDS011;6483;51.310;4.462;2023-01-29T04:11:46;46.50;;;25.97;;
12832;SDS011;6483;51.310;4.462;2023-01-29T04:14:16;49.63;;;26.30;;
12832;SDS011;6483;51.310;4.462;2023-01-29T04:16:50;47.83;;;27.97;;
12832;SDS011;6483;51.310;4.462;2023-01-29T04:19:18;49.00;;;26.93;;
12832;SDS011;6483;51.310;4.462;2023-01-29T04:21:45;47.90;;;27.30;;
12832;SDS011;6483;51.310;4.462;2023-01-29T04:24:22;47.20;;;25.53;;
12832;SDS011;6483;51.310;4.462;2023-01-29T04:29:30;47.37;;;26.20;;
12832;SDS011;6483;51.310;4.462;2023-01-29T04:35:40;43.93;;;25.30;;
12832;SDS011;6483;51.310;4.462;2023-01-29T04:41:32;45.13;;;25.23;;
12832;SDS011;6483;51.310;4.462;2023-01-29T04:58:06;48.07;;;27.67;;
12832;SDS011;6483;51.310;4.462;2023-01-29T05:00:44;45.87;;;26.83;;
12832;SDS011;6483;51.310;4.462;2023-01-29T05:03:13;45.93;;;27.60;;
12832;SDS011;6483;51.310;4.462;2023-01-29T05:05:40;44.83;;;25.83;;
12832;SDS011;6483;51.310;4.462;2023-01-29T05:08:10;48.87;;;26.03;;
12832;SDS011;6483;51.310;4.462;2023-01-29T05:10:39;46.60;;;26.27;;
12832;SDS011;6483;51.310;4.462;2023-01-29T05:13:07;45.33;;;26.73;;
12832;SDS011;6483;51.310;4.462;2023-01-29T05:15:38;43.27;;;25.60;;
12832;SDS011;6483;51.310;4.462;2023-01-29T05:18:11;48.57;;;26.83;;
12832;SDS011;6483;51.310;4.462;2023-01-29T05:20:38;42.80;;;25.63;;
12832;SDS011;6483;51.310;4.462;2023-01-29T05:23:58;42.37;;;26.03;;
12832;SDS011;6483;51.310;4.462;2023-01-29T05:25:54;43.17;;;25.57;;
12832;SDS011;6483;51.310;4.462;2023-01-29T05:28:21;42.70;;;25.50;;
12832;SDS011;6483;51.310;4.462;2023-01-29T05:30:49;44.17;;;26.20;;
12832;SDS011;6483;51.310;4.462;2023-01-29T05:33:20;48.00;;;29.07;;
12832;SDS011;6483;51.310;4.462;2023-01-29T05:35:53;45.33;;;26.70;;
12832;SDS011;6483;51.310;4.462;2023-01-29T05:38:24;50.63;;;28.20;;
12832;SDS011;6483;51.310;4.462;2023-01-29T05:40:52;47.33;;;27.17;;
12832;SDS011;6483;51.310;4.462;2023-01-29T05:43:19;45.23;;;27.00;;
12832;SDS011;6483;51.310;4.462;2023-01-29T05:45:56;46.20;;;26.47;;
12832;SDS011;6483;51.310;4.462;2023-01-29T05:48:24;48.37;;;27.27;;
12832;SDS011;6483;51.310;4.462;2023-01-29T05:50:51;48.23;;;28.30;;
12832;SDS011;6483;51.310;4.462;2023-01-29T05:53:17;49.63;;;28.40;;
12832;SDS011;6483;51.310;4.462;2023-01-29T05:55:44;45.33;;;26.67;;
12832;SDS011;6483;51.310;4.462;2023-01-29T05:58:36;48.30;;;27.90;;
12832;SDS011;6483;51.310;4.462;2023-01-29T06:03:38;54.13;;;27.23;;
12832;SDS011;6483;51.310;4.462;2023-01-29T06:06:06;48.60;;;28.97;;
12832;SDS011;6483;51.310;4.462;2023-01-29T06:08:33;50.23;;;28.23;;
12832;SDS011;6483;51.310;4.462;2023-01-29T06:11:02;47.10;;;27.53;;
12832;SDS011;6483;51.310;4.462;2023-01-29T06:13:29;46.27;;;26.33;;
12832;SDS011;6483;51.310;4.462;2023-01-29T06:15:55;49.03;;;28.13;;
12832;SDS011;6483;51.310;4.462;2023-01-29T06:18:26;49.27;;;27.63;;
12832;SDS011;6483;51.310;4.462;2023-01-29T06:20:52;47.60;;;28.30;;
12832;SDS011;6483;51.310;4.462;2023-01-29T06:23:17;46.50;;;27.33;;
12832;SDS011;6483;51.310;4.462;2023-01-29T06:25:43;44.13;;;26.43;;
12832;SDS011;6483;51.310;4.462;2023-01-29T06:28:08;46.73;;;26.53;;
12832;SDS011;6483;51.310;4.462;2023-01-29T06:30:40;41.27;;;25.67;;
12832;SDS011;6483;51.310;4.462;2023-01-29T06:33:12;46.63;;;25.97;;
12832;SDS011;6483;51.310;4.462;2023-01-29T06:35:37;43.30;;;25.17;;
12832;SDS011;6483;51.310;4.462;2023-01-29T06:38:06;43.10;;;25.23;;
12832;SDS011;6483;51.310;4.462;2023-01-29T06:40:32;41.43;;;25.17;;
12832;SDS011;6483;51.310;4.462;2023-01-29T06:42:59;38.70;;;23.77;;
12832;SDS011;6483;51.310;4.462;2023-01-29T06:45:25;39.27;;;23.53;;
12832;SDS011;6483;51.310;4.462;2023-01-29T06:47:50;42.43;;;25.37;;
12832;SDS011;6483;51.310;4.462;2023-01-29T06:50:16;43.87;;;24.40;;
12832;SDS011;6483;51.310;4.462;2023-01-29T06:52:42;40.93;;;24.50;;
12832;SDS011;6483;51.310;4.462;2023-01-29T06:55:08;38.83;;;25.10;;
12832;SDS011;6483;51.310;4.462;2023-01-29T06:57:34;39.63;;;24.60;;
12832;SDS011;6483;51.310;4.462;2023-01-29T06:59:59;40.00;;;24.07;;
12832;SDS011;6483;51.310;4.462;2023-01-29T07:02:25;42.83;;;24.40;;
12832;SDS011;6483;51.310;4.462;2023-01-29T07:04:51;40.23;;;24.37;;
12832;SDS011;6483;51.310;4.462;2023-01-29T07:07:16;39.10;;;23.83;;
12832;SDS011;6483;51.310;4.462;2023-01-29T07:09:42;43.90;;;24.63;;
12832;SDS011;6483;51.310;4.462;2023-01-29T07:12:10;39.10;;;23.47;;
12832;SDS011;6483;51.310;4.462;2023-01-29T07:14:39;36.43;;;22.20;;
12832;SDS011;6483;51.310;4.462;2023-01-29T07:17:04;36.10;;;22.43;;
12832;SDS011;6483;51.310;4.462;2023-01-29T07:19:30;38.07;;;22.90;;
12832;SDS011;6483;51.310;4.462;2023-01-29T07:21:58;37.47;;;22.87;;
12832;SDS011;6483;51.310;4.462;2023-01-29T07:24:26;33.63;;;20.87;;
12832;SDS011;6483;51.310;4.462;2023-01-29T07:26:55;33.57;;;21.73;;
12832;SDS011;6483;51.310;4.462;2023-01-29T07:29:21;37.47;;;22.57;;
12832;SDS011;6483;51.310;4.462;2023-01-29T07:31:47;36.17;;;21.90;;
12832;SDS011;6483;51.310;4.462;2023-01-29T07:34:12;36.23;;;21.37;;
12832;SDS011;6483;51.310;4.462;2023-01-29T07:36:38;33.50;;;20.67;;
12832;SDS011;6483;51.310;4.462;2023-01-29T07:39:04;35.67;;;20.93;;
12832;SDS011;6483;51.310;4.462;2023-01-29T07:41:30;37.77;;;21.27;;
12832;SDS011;6483;51.310;4.462;2023-01-29T07:43:56;34.43;;;20.10;;
12832;SDS011;6483;51.310;4.462;2023-01-29T07:46:21;39.53;;;21.63;;
12832;SDS011;6483;51.310;4.462;2023-01-29T07:48:47;32.70;;;19.67;;
12832;SDS011;6483;51.310;4.462;2023-01-29T07:51:13;34.17;;;20.47;;
12832;SDS011;6483;51.310;4.462;2023-01-29T07:53:42;33.53;;;20.63;;
12832;SDS011;6483;51.310;4.462;2023-01-29T07:56:09;35.40;;;20.13;;
12832;SDS011;6483;51.310;4.462;2023-01-29T07:58:35;35.73;;;20.27;;
12832;SDS011;6483;51.310;4.462;2023-01-29T08:01:03;32.40;;;19.47;;
12832;SDS011;6483;51.310;4.462;2023-01-29T08:03:32;34.53;;;20.50;;
12832;SDS011;6483;51.310;4.462;2023-01-29T08:06:01;33.53;;;20.47;;
12832;SDS011;6483;51.310;4.462;2023-01-29T08:08:28;31.33;;;19.17;;
12832;SDS011;6483;51.310;4.462;2023-01-29T08:10:53;34.47;;;19.23;;
12832;SDS011;6483;51.310;4.462;2023-01-29T08:13:19;30.70;;;18.73;;
12832;SDS011;6483;51.310;4.462;2023-01-29T08:15:45;33.77;;;19.80;;
12832;SDS011;6483;51.310;4.462;2023-01-29T08:18:12;31.27;;;18.73;;
12832;SDS011;6483;51.310;4.462;2023-01-29T08:20:38;28.30;;;17.93;;
12832;SDS011;6483;51.310;4.462;2023-01-29T08:23:08;34.27;;;18.77;;
12832;SDS011;6483;51.310;4.462;2023-01-29T08:25:37;30.63;;;19.03;;
12832;SDS011;6483;51.310;4.462;2023-01-29T08:28:03;33.43;;;19.03;;
12832;SDS011;6483;51.310;4.462;2023-01-29T08:30:30;31.10;;;18.50;;
12832;SDS011;6483;51.310;4.462;2023-01-29T08:32:59;32.97;;;18.37;;
12832;SDS011;6483;51.310;4.462;2023-01-29T08:35:25;33.10;;;18.67;;
12832;SDS011;6483;51.310;4.462;2023-01-29T08:37:55;28.00;;;17.63;;
12832;SDS011;6483;51.310;4.462;2023-01-29T08:40:26;31.47;;;17.97;;
12832;SDS011;6483;51.310;4.462;2023-01-29T08:42:59;27.93;;;17.27;;
12832;SDS011;6483;51.310;4.462;2023-01-29T08:45:30;27.23;;;16.50;;
12832;SDS011;6483;51.310;4.462;2023-01-29T08:48:00;27.40;;;16.40;;
12832;SDS011;6483;51.310;4.462;2023-01-29T08:50:26;34.60;;;18.83;;
12832;SDS011;6483;51.310;4.462;2023-01-29T08:52:58;28.37;;;16.53;;
12832;SDS011;6483;51.310;4.462;2023-01-29T08:55:24;28.27;;;17.20;;
12832;SDS011;6483;51.310;4.462;2023-01-29T08:57:51;27.10;;;16.63;;
12832;SDS011;6483;51.310;4.462;2023-01-29T09:00:17;29.83;;;16.57;;
12832;SDS011;6483;51.310;4.462;2023-01-29T09:02:44;29.33;;;16.83;;
12832;SDS011;6483;51.310;4.462;2023-01-29T09:05:10;28.67;;;17.83;;
12832;SDS011;6483;51.310;4.462;2023-01-29T09:07:38;32.57;;;18.03;;
12832;SDS011;6483;51.310;4.462;2023-01-29T09:10:04;31.67;;;17.03;;
12832;SDS011;6483;51.310;4.462;2023-01-29T09:12:30;32.37;;;15.80;;
12832;SDS011;6483;51.310;4.462;2023-01-29T09:14:56;26.23;;;16.27;;
12832;SDS011;6483;51.310;4.462;2023-01-29T09:17:24;26.83;;;16.50;;
12832;SDS011;6483;51.310;4.462;2023-01-29T09:19:50;31.90;;;18.40;;
12832;SDS011;6483;51.310;4.462;2023-01-29T09:22:17;25.03;;;16.13;;
12832;SDS011;6483;51.310;4.462;2023-01-29T09:24:46;26.63;;;16.33;;
12832;SDS011;6483;51.310;4.462;2023-01-29T09:27:12;29.83;;;16.80;;
12832;SDS011;6483;51.310;4.462;2023-01-29T09:29:38;28.47;;;16.43;;
12832;SDS011;6483;51.310;4.462;2023-01-29T09:32:07;26.67;;;16.20;;
12832;SDS011;6483;51.310;4.462;2023-01-29T09:34:33;27.93;;;16.67;;
12832;SDS011;6483;51.310;4.462;2023-01-29T09:37:02;31.17;;;17.17;;
12832;SDS011;6483;51.310;4.462;2023-01-29T09:39:28;26.97;;;16.67;;
12832;SDS011;6483;51.310;4.462;2023-01-29T09:44:54;27.63;;;16.63;;
12832;SDS011;6483;51.310;4.462;2023-01-29T09:47:41;30.60;;;16.40;;
12832;SDS011;6483;51.310;4.462;2023-01-29T09:50:13;29.30;;;16.90;;
12832;SDS011;6483;51.310;4.462;2023-01-29T09:56:03;29.10;;;16.80;;
12832;SDS011;6483;51.310;4.462;2023-01-29T09:58:32;28.40;;;16.40;;
12832;SDS011;6483;51.310;4.462;2023-01-29T10:01:09;27.77;;;16.87;;
12832;SDS011;6483;51.310;4.462;2023-01-29T10:06:35;26.03;;;16.90;;
12832;SDS011;6483;51.310;4.462;2023-01-29T10:10:04;27.30;;;16.40;;
12832;SDS011;6483;51.310;4.462;2023-01-29T10:16:07;29.07;;;16.70;;
12832;SDS011;6483;51.310;4.462;2023-01-29T10:18:51;28.20;;;16.13;;
12832;SDS011;6483;51.310;4.462;2023-01-29T10:26:48;33.13;;;17.63;;
12832;SDS011;6483;51.310;4.462;2023-01-29T10:29:19;29.67;;;17.40;;
12832;SDS011;6483;51.310;4.462;2023-01-29T10:31:54;30.67;;;17.30;;
12832;SDS011;6483;51.310;4.462;2023-01-29T10:34:39;33.07;;;18.67;;
12832;SDS011;6483;51.310;4.462;2023-01-29T10:37:13;30.10;;;17.77;;
12832;SDS011;6483;51.310;4.462;2023-01-29T10:39:51;32.40;;;17.50;;
12832;SDS011;6483;51.310;4.462;2023-01-29T10:45:02;30.90;;;17.77;;
12832;SDS011;6483;51.310;4.462;2023-01-29T10:58:31;34.87;;;19.77;;
12832;SDS011;6483;51.310;4.462;2023-01-29T11:01:16;29.50;;;17.97;;
12832;SDS011;6483;51.310;4.462;2023-01-29T11:03:42;30.27;;;19.30;;
12832;SDS011;6483;51.310;4.462;2023-01-29T11:06:32;30.20;;;18.67;;
12832;SDS011;6483;51.310;4.462;2023-01-29T11:09:16;36.93;;;19.30;;
12832;SDS011;6483;51.310;4.462;2023-01-29T11:17:26;33.17;;;20.30;;
12832;SDS011;6483;51.310;4.462;2023-01-29T11:19:54;31.97;;;18.70;;
12832;SDS011;6483;51.310;4.462;2023-01-29T11:22:24;33.30;;;19.30;;
12832;SDS011;6483;51.310;4.462;2023-01-29T11:27:57;31.97;;;19.13;;
12832;SDS011;6483;51.310;4.462;2023-01-29T11:36:10;29.10;;;18.03;;
12832;SDS011;6483;51.310;4.462;2023-01-29T11:41:49;31.60;;;19.80;;
12832;SDS011;6483;51.310;4.462;2023-01-29T11:44:41;29.03;;;18.73;;
12832;SDS011;6483;51.310;4.462;2023-01-29T11:49:52;28.80;;;19.43;;
12832;SDS011;6483;51.310;4.462;2023-01-29T11:52:40;32.27;;;19.97;;
12832;SDS011;6483;51.310;4.462;2023-01-29T12:01:06;32.87;;;19.07;;
12832;SDS011;6483;51.310;4.462;2023-01-29T12:03:41;33.00;;;19.13;;
12832;SDS011;6483;51.310;4.462;2023-01-29T12:06:22;35.20;;;20.80;;
12832;SDS011;6483;51.310;4.462;2023-01-29T12:09:14;28.10;;;17.20;;
12832;SDS011;6483;51.310;4.462;2023-01-29T12:11:43;29.87;;;18.63;;
12832;SDS011;6483;51.310;4.462;2023-01-29T12:14:28;31.63;;;19.60;;
12832;SDS011;6483;51.310;4.462;2023-01-29T12:20:26;29.17;;;18.37;;
12832;SDS011;6483;51.310;4.462;2023-01-29T12:22:52;29.03;;;17.73;;
12832;SDS011;6483;51.310;4.462;2023-01-29T12:25:33;27.87;;;18.67;;
12832;SDS011;6483;51.310;4.462;2023-01-29T12:28:36;28.53;;;17.90;;
12832;SDS011;6483;51.310;4.462;2023-01-29T12:34:15;30.50;;;18.30;;
12832;SDS011;6483;51.310;4.462;2023-01-29T12:39:49;27.43;;;17.43;;
12832;SDS011;6483;51.310;4.462;2023-01-29T12:42:36;28.27;;;17.13;;
12832;SDS011;6483;51.310;4.462;2023-01-29T12:45:08;27.63;;;17.83;;
12832;SDS011;6483;51.310;4.462;2023-01-29T12:47:44;30.03;;;18.53;;
12832;SDS011;6483;51.310;4.462;2023-01-29T12:50:32;30.37;;;18.07;;
12832;SDS011;6483;51.310;4.462;2023-01-29T12:56:17;27.33;;;18.10;;
12832;SDS011;6483;51.310;4.462;2023-01-29T12:58:58;28.40;;;17.90;;
12832;SDS011;6483;51.310;4.462;2023-01-29T13:01:40;30.43;;;20.43;;
12832;SDS011;6483;51.310;4.462;2023-01-29T13:04:15;28.40;;;18.03;;
12832;SDS011;6483;51.310;4.462;2023-01-29T13:06:49;29.77;;;18.20;;
12832;SDS011;6483;51.310;4.462;2023-01-29T13:09:23;30.40;;;18.00;;
12832;SDS011;6483;51.310;4.462;2023-01-29T13:12:11;27.53;;;16.37;;
12832;SDS011;6483;51.310;4.462;2023-01-29T13:17:20;27.03;;;16.43;;
12832;SDS011;6483;51.310;4.462;2023-01-29T13:19:55;27.90;;;17.80;;
12832;SDS011;6483;51.310;4.462;2023-01-29T13:22:27;26.83;;;17.40;;
12832;SDS011;6483;51.310;4.462;2023-01-29T13:25:18;34.97;;;18.43;;
12832;SDS011;6483;51.310;4.462;2023-01-29T13:27:44;27.53;;;17.57;;
12832;SDS011;6483;51.310;4.462;2023-01-29T13:30:31;26.27;;;16.67;;
12832;SDS011;6483;51.310;4.462;2023-01-29T13:33:02;28.13;;;17.43;;
12832;SDS011;6483;51.310;4.462;2023-01-29T13:35:41;26.07;;;15.73;;
12832;SDS011;6483;51.310;4.462;2023-01-29T13:38:29;27.67;;;17.40;;
12832;SDS011;6483;51.310;4.462;2023-01-29T13:41:01;27.20;;;16.03;;
12832;SDS011;6483;51.310;4.462;2023-01-29T13:43:32;25.73;;;16.83;;
12832;SDS011;6483;51.310;4.462;2023-01-29T13:46:07;24.93;;;15.73;;
12832;SDS011;6483;51.310;4.462;2023-01-29T13:48:39;27.30;;;17.20;;
12832;SDS011;6483;51.310;4.462;2023-01-29T13:51:10;32.03;;;17.80;;
12832;SDS011;6483;51.310;4.462;2023-01-29T13:53:41;29.03;;;16.87;;
12832;SDS011;6483;51.310;4.462;2023-01-29T13:56:43;31.27;;;17.43;;
12832;SDS011;6483;51.310;4.462;2023-01-29T14:02:18;27.07;;;16.17;;
12832;SDS011;6483;51.310;4.462;2023-01-29T14:04:47;28.03;;;17.50;;
12832;SDS011;6483;51.310;4.462;2023-01-29T14:10:17;26.67;;;16.60;;
12832;SDS011;6483;51.310;4.462;2023-01-29T14:12:45;24.97;;;15.97;;
12832;SDS011;6483;51.310;4.462;2023-01-29T14:15:22;35.27;;;21.27;;
12832;SDS011;6483;51.310;4.462;2023-01-29T14:17:54;25.27;;;16.13;;
12832;SDS011;6483;51.310;4.462;2023-01-29T14:20:38;27.40;;;16.40;;
12832;SDS011;6483;51.310;4.462;2023-01-29T14:23:05;31.93;;;18.27;;
12832;SDS011;6483;51.310;4.462;2023-01-29T14:25:42;26.87;;;16.07;;
12832;SDS011;6483;51.310;4.462;2023-01-29T14:28:32;22.57;;;14.43;;
12832;SDS011;6483;51.310;4.462;2023-01-29T14:31:02;25.03;;;15.87;;
12832;SDS011;6483;51.310;4.462;2023-01-29T14:33:35;24.80;;;15.07;;
12832;SDS011;6483;51.310;4.462;2023-01-29T14:36:08;25.77;;;16.63;;
12832;SDS011;6483;51.310;4.462;2023-01-29T14:38:37;27.47;;;15.40;;
12832;SDS011;6483;51.310;4.462;2023-01-29T14:41:24;24.53;;;15.80;;
12832;SDS011;6483;51.310;4.462;2023-01-29T14:46:58;21.40;;;13.60;;
12832;SDS011;6483;51.310;4.462;2023-01-29T14:52:42;25.17;;;15.07;;
12832;SDS011;6483;51.310;4.462;2023-01-29T14:55:24;25.03;;;15.40;;
12832;SDS011;6483;51.310;4.462;2023-01-29T14:57:59;31.20;;;16.43;;
12832;SDS011;6483;51.310;4.462;2023-01-29T15:00:30;27.77;;;17.07;;
12832;SDS011;6483;51.310;4.462;2023-01-29T15:03:04;25.63;;;15.10;;
12832;SDS011;6483;51.310;4.462;2023-01-29T15:05:41;25.27;;;15.43;;
12832;SDS011;6483;51.310;4.462;2023-01-29T15:08:26;28.00;;;16.03;;
12832;SDS011;6483;51.310;4.462;2023-01-29T15:10:59;25.83;;;16.47;;
12832;SDS011;6483;51.310;4.462;2023-01-29T15:16:47;27.90;;;16.20;;
12832;SDS011;6483;51.310;4.462;2023-01-29T15:19:36;31.50;;;16.37;;
12832;SDS011;6483;51.310;4.462;2023-01-29T15:22:26;27.30;;;17.77;;
12832;SDS011;6483;51.310;4.462;2023-01-29T15:25:13;29.27;;;17.30;;
12832;SDS011;6483;51.310;4.462;2023-01-29T15:27:40;27.13;;;15.67;;
12832;SDS011;6483;51.310;4.462;2023-01-29T15:30:13;30.23;;;16.10;;
12832;SDS011;6483;51.310;4.462;2023-01-29T15:32:58;25.87;;;16.00;;
12832;SDS011;6483;51.310;4.462;2023-01-29T15:38:18;27.87;;;16.57;;
12832;SDS011;6483;51.310;4.462;2023-01-29T15:40:53;26.60;;;15.17;;
12832;SDS011;6483;51.310;4.462;2023-01-29T15:43:35;23.47;;;14.67;;
12832;SDS011;6483;51.310;4.462;2023-01-29T15:46:11;28.10;;;16.07;;
12832;SDS011;6483;51.310;4.462;2023-01-29T15:48:40;27.33;;;16.67;;
12832;SDS011;6483;51.310;4.462;2023-01-29T15:51:08;25.23;;;16.27;;
12832;SDS011;6483;51.310;4.462;2023-01-29T15:53:52;29.40;;;16.20;;
12832;SDS011;6483;51.310;4.462;2023-01-29T15:56:28;25.97;;;15.73;;
12832;SDS011;6483;51.310;4.462;2023-01-29T15:58:59;29.57;;;15.80;;
12832;SDS011;6483;51.310;4.462;2023-01-29T16:01:27;26.37;;;16.50;;
12832;SDS011;6483;51.310;4.462;2023-01-29T16:03:54;27.67;;;16.23;;
12832;SDS011;6483;51.310;4.462;2023-01-29T16:06:22;28.90;;;16.87;;
12832;SDS011;6483;51.310;4.462;2023-01-29T16:08:50;25.97;;;15.67;;
12832;SDS011;6483;51.310;4.462;2023-01-29T16:11:21;27.17;;;15.43;;
12832;SDS011;6483;51.310;4.462;2023-01-29T16:13:50;25.40;;;16.20;;
12832;SDS011;6483;51.310;4.462;2023-01-29T16:16:21;24.20;;;15.60;;
12832;SDS011;6483;51.310;4.462;2023-01-29T16:18:51;27.37;;;16.13;;
12832;SDS011;6483;51.310;4.462;2023-01-29T16:23:56;23.73;;;15.33;;
12832;SDS011;6483;51.310;4.462;2023-01-29T16:26:30;25.40;;;15.70;;
12832;SDS011;6483;51.310;4.462;2023-01-29T16:29:03;29.13;;;17.07;;
12832;SDS011;6483;51.310;4.462;2023-01-29T16:31:37;34.27;;;18.37;;
12832;SDS011;6483;51.310;4.462;2023-01-29T16:34:46;28.73;;;17.63;;
12832;SDS011;6483;51.310;4.462;2023-01-29T16:36:57;30.57;;;17.27;;
12832;SDS011;6483;51.310;4.462;2023-01-29T16:39:28;27.37;;;16.87;;
12832;SDS011;6483;51.310;4.462;2023-01-29T16:44:57;28.53;;;18.50;;
12832;SDS011;6483;51.310;4.462;2023-01-29T16:47:26;28.47;;;17.83;;
12832;SDS011;6483;51.310;4.462;2023-01-29T16:53:16;30.83;;;17.87;;
12832;SDS011;6483;51.310;4.462;2023-01-29T16:55:45;30.83;;;18.63;;
12832;SDS011;6483;51.310;4.462;2023-01-29T16:58:48;32.40;;;18.50;;
12832;SDS011;6483;51.310;4.462;2023-01-29T17:01:09;33.10;;;19.03;;
12832;SDS011;6483;51.310;4.462;2023-01-29T17:03:35;34.63;;;20.13;;
12832;SDS011;6483;51.310;4.462;2023-01-29T17:06:17;31.63;;;19.20;;
12832;SDS011;6483;51.310;4.462;2023-01-29T17:08:46;31.37;;;19.10;;
12832;SDS011;6483;51.310;4.462;2023-01-29T17:11:31;32.20;;;18.67;;
12832;SDS011;6483;51.310;4.462;2023-01-29T17:14:00;37.73;;;19.33;;
12832;SDS011;6483;51.310;4.462;2023-01-29T17:16:33;33.90;;;19.87;;
12832;SDS011;6483;51.310;4.462;2023-01-29T17:19:18;35.53;;;20.07;;
12832;SDS011;6483;51.310;4.462;2023-01-29T17:21:44;32.53;;;18.73;;
12832;SDS011;6483;51.310;4.462;2023-01-29T17:24:10;33.40;;;20.53;;
12832;SDS011;6483;51.310;4.462;2023-01-29T17:26:42;37.00;;;20.57;;
12832;SDS011;6483;51.310;4.462;2023-01-29T17:29:17;33.33;;;19.63;;
12832;SDS011;6483;51.310;4.462;2023-01-29T17:31:45;40.23;;;21.00;;
12832;SDS011;6483;51.310;4.462;2023-01-29T17:34:11;33.83;;;20.20;;
12832;SDS011;6483;51.310;4.462;2023-01-29T17:36:42;33.40;;;19.93;;
12832;SDS011;6483;51.310;4.462;2023-01-29T17:39:19;37.13;;;20.93;;
12832;SDS011;6483;51.310;4.462;2023-01-29T17:41:48;35.77;;;19.33;;
12832;SDS011;6483;51.310;4.462;2023-01-29T17:44:15;31.77;;;18.17;;
12832;SDS011;6483;51.310;4.462;2023-01-29T17:46:41;33.60;;;20.37;;
12832;SDS011;6483;51.310;4.462;2023-01-29T17:49:20;34.37;;;19.30;;
12832;SDS011;6483;51.310;4.462;2023-01-29T17:51:48;34.30;;;20.93;;
12832;SDS011;6483;51.310;4.462;2023-01-29T17:54:15;33.53;;;20.17;;
12832;SDS011;6483;51.310;4.462;2023-01-29T17:56:40;31.17;;;19.50;;